Aviation Digital Data Service (ADDS)

Output produced by METARs form (0228 UTC 16 January 2019)
found at http://www.aviationweather.gov/metar/data/
 
LMML 160215Z 09002KT 9999 FEW035 08/03 Q1023 NOSIG
TAF LMML 152300Z 1600/1624 08010KT 9999 SCT035 
     BECMG 1609/1612 16012KT 
     PROB30 
     TEMPO 1621/1624 8000 SHRA